Time;durP1;ratioP1;P1;durP2;ratioP2;P2;SDS_P1;SDS_P2;PMS_P1;PMS_P2;Temp;Humidity;BMP_temperature;BMP_pressure;BME280_temperature;BME280_humidity;BME280_pressure;Samples;Min_cycle;Max_cycle;Signal;HPM_P1;HPM_P2
2022/06/03 00:02:32;;;;;;;;;;;19.80;52.70;;;;;;5107377;28;19982;-48
2022/06/03 00:05:16;;;;;;;;;;;19.70;52.20;;;;;;5107162;28;19923;-46
2022/06/03 00:07:48;;;;;;;;;;;19.70;52.00;;;;;;5129356;28;19923;-51
2022/06/03 00:10:29;;;;;;;;;;;20.60;54.40;;;;;;5124458;28;20006;-46
2022/06/03 00:12:55;;;;;;;;;;;21.50;52.80;;;;;;5125135;28;20414;-49
2022/06/03 00:15:27;;;;;;;;;;;20.80;51.70;;;;;;5129231;28;19931;-48
2022/06/03 00:18:05;;;;;;;;;;;19.90;52.40;;;;;;5122642;28;19923;-50
2022/06/03 00:20:33;;;;;;;;;;;19.90;51.70;;;;;;5124747;28;19980;-46
2022/06/03 00:23:18;;;;;;;;;;;19.70;51.90;;;;;;5128827;28;20014;-47
2022/06/03 00:25:47;;;;;;;;;;;19.70;53.40;;;;;;5125405;28;19928;-46
2022/06/03 00:28:15;;;;;;;;;;;20.80;54.70;;;;;;5104718;28;19989;-48
2022/06/03 00:30:47;;;;;;;;;;;21.40;53.20;;;;;;5128732;28;20426;-48
2022/06/03 00:33:19;;;;;;;;;;;20.70;52.00;;;;;;5105442;28;19927;-46
2022/06/03 00:35:45;;;;;;;;;;;20.00;52.40;;;;;;5126257;28;19937;-54
2022/06/03 00:38:29;;;;;;;;;;;19.70;52.40;;;;;;5126571;28;19923;-47
2022/06/03 00:41:11;;;;;;;;;;;19.50;52.40;;;;;;5125315;28;20006;-47
2022/06/03 00:43:39;;;;;;;;;;;20.30;54.70;;;;;;5124594;28;19923;-51
2022/06/03 00:46:12;;;;;;;;;;;21.30;53.80;;;;;;5128331;28;20429;-48
2022/06/03 00:48:50;;;;;;;;;;;21.20;51.70;;;;;;5124602;28;20007;-50
2022/06/03 00:51:25;;;;;;;;;;;20.00;52.70;;;;;;5108559;28;19927;-52
2022/06/03 00:53:57;;;;;;;;;;;19.80;52.50;;;;;;5127708;28;20343;-49
2022/06/03 00:56:38;;;;;;;;;;;19.70;52.00;;;;;;5124011;28;20322;-46
2022/06/03 00:59:07;;;;;;;;;;;19.70;52.10;;;;;;5125505;28;19924;-52
2022/06/03 01:01:34;;;;;;;;;;;20.70;54.50;;;;;;5128183;28;20013;-48
2022/06/03 01:04:08;;;;;;;;;;;21.50;53.00;;;;;;5123019;27;20017;-46
2022/06/03 01:06:44;;;;;;;;;;;20.90;51.70;;;;;;5110032;28;19930;-46
2022/06/03 01:09:28;;;;;;;;;;;20.10;52.20;;;;;;5126401;28;19924;-48
2022/06/03 01:12:00;;;;;;;;;;;19.70;52.10;;;;;;5121470;28;20174;-48
2022/06/03 01:14:45;;;;;;;;;;;19.60;52.00;;;;;;5125292;28;19931;-55
2022/06/03 01:17:12;;;;;;;;;;;19.70;52.90;;;;;;5128094;28;20417;-49
2022/06/03 01:19:47;;;;;;;;;;;20.80;54.50;;;;;;5105657;28;19927;-54
2022/06/03 01:22:32;;;;;;;;;;;21.40;53.30;;;;;;5124556;28;20014;-56
2022/06/03 01:24:59;;;;;;;;;;;20.80;51.90;;;;;;5127488;28;19930;-48
2022/06/03 01:27:25;;;;;;;;;;;19.90;52.40;;;;;;5121956;28;19996;-49
2022/06/03 01:29:51;;;;;;;;;;;19.80;52.10;;;;;;5126741;28;20374;-51
2022/06/03 01:32:36;;;;;;;;;;;20.20;54.00;;;;;;5121866;28;19999;-50
2022/06/03 01:35:20;;;;;;;;;;;21.10;53.50;;;;;;5121709;28;19982;-52
2022/06/03 01:37:54;;;;;;;;;;;21.30;51.20;;;;;;5122823;28;19936;-53
2022/06/03 01:40:22;;;;;;;;;;;20.10;51.70;;;;;;5109161;28;20454;-53
2022/06/03 01:43:05;;;;;;;;;;;19.80;51.60;;;;;;5103660;28;19968;-48
2022/06/03 01:45:31;;;;;;;;;;;19.70;52.70;;;;;;5103216;28;19927;-55
2022/06/03 01:48:03;;;;;;;;;;;20.70;54.60;;;;;;5126556;28;20317;-50
2022/06/03 01:50:47;;;;;;;;;;;21.40;52.60;;;;;;5100649;28;19957;-56
2022/06/03 01:53:16;;;;;;;;;;;20.70;51.60;;;;;;5122862;28;20320;-57
2022/06/03 01:55:54;;;;;;;;;;;20.00;52.10;;;;;;5107907;28;20001;-48
2022/06/03 01:58:32;;;;;;;;;;;19.70;52.00;;;;;;5122318;28;20104;-52
2022/06/03 02:01:10;;;;;;;;;;;20.30;54.40;;;;;;5123439;28;20022;-58
2022/06/03 02:03:42;;;;;;;;;;;21.30;53.30;;;;;;5126744;28;20306;-51
2022/06/03 02:06:14;;;;;;;;;;;21.00;51.70;;;;;;5101283;28;20061;-49
2022/06/03 02:08:55;;;;;;;;;;;20.10;52.20;;;;;;5121113;28;20882;-54
2022/06/03 02:11:33;;;;;;;;;;;19.80;52.20;;;;;;5126026;28;20030;-49
2022/06/03 02:14:38;;;;;;;;;;;19.70;52.10;;;;;;5121591;28;19931;-48
2022/06/03 02:17:08;;;;;;;;;;;20.30;55.40;;;;;;5016782;28;20284;-53
2022/06/03 02:19:55;;;;;;;;;;;21.40;53.60;;;;;;5006708;28;20693;-52
2022/06/03 02:22:42;;;;;;;;;;;21.10;52.00;;;;;;5066129;28;19995;-49
2022/06/03 02:25:13;;;;;;;;;;;20.10;52.40;;;;;;5101467;28;20027;-52
2022/06/03 02:27:54;;;;;;;;;;;19.70;52.50;;;;;;5105964;28;19923;-49
2022/06/03 02:30:39;;;;;;;;;;;19.80;52.00;;;;;;5120912;28;19923;-48
2022/06/03 02:33:23;;;;;;;;;;;20.40;55.40;;;;;;5121056;28;20014;-52
2022/06/03 02:36:07;;;;;;;;;;;21.30;54.40;;;;;;5122578;28;19954;-57
2022/06/03 02:38:33;;;;;;;;;;;20.80;52.70;;;;;;5126303;28;20287;-47
2022/06/03 02:41:18;;;;;;;;;;;20.00;52.60;;;;;;5120643;28;19928;-49
2022/06/03 02:44:02;;;;;;;;;;;19.80;52.20;;;;;;5119998;28;20444;-50
2022/06/03 02:46:35;;;;;;;;;;;20.30;55.40;;;;;;5124757;28;20446;-49
2022/06/03 02:49:20;;;;;;;;;;;21.30;54.20;;;;;;5102140;28;20896;-53
2022/06/03 02:51:58;;;;;;;;;;;21.10;52.10;;;;;;5120465;28;20290;-53
2022/06/03 02:54:24;;;;;;;;;;;20.10;52.40;;;;;;5107728;28;20301;-50
2022/06/03 02:57:10;;;;;;;;;;;19.80;52.00;;;;;;5120585;28;19924;-47
2022/06/03 02:59:36;;;;;;;;;;;19.80;53.70;;;;;;5102417;28;19930;-49
2022/06/03 03:02:14;;;;;;;;;;;20.80;55.30;;;;;;5124776;28;19924;-53
2022/06/03 03:04:54;;;;;;;;;;;21.50;53.10;;;;;;5118986;28;19945;-48
2022/06/03 03:07:39;;;;;;;;;;;20.40;52.30;;;;;;5101082;28;19968;-49
2022/06/03 03:10:23;;;;;;;;;;;19.80;52.20;;;;;;5125366;28;20026;-48
2022/06/03 03:13:02;;;;;;;;;;;19.70;51.90;;;;;;5120502;28;19938;-49
2022/06/03 03:15:45;;;;;;;;;;;20.30;55.10;;;;;;5120705;28;19934;-47
2022/06/03 03:18:29;;;;;;;;;;;21.20;54.80;;;;;;5105586;28;20018;-46
2022/06/03 03:20:58;;;;;;;;;;;21.60;53.00;;;;;;5123912;28;19923;-57
2022/06/03 03:23:43;;;;;;;;;;;21.70;51.90;;;;;;5118756;28;20367;-58
2022/06/03 03:26:27;;;;;;;;;;;21.70;51.40;;;;;;5121145;28;19949;-57
2022/06/03 03:28:59;;;;;;;;;;;21.80;51.20;;;;;;5128829;28;20438;-55
2022/06/03 03:31:57;;;;;;;;;;;21.80;50.80;;;;;;5123783;28;20302;-59
2022/06/03 03:34:49;;;;;;;;;;;21.90;50.50;;;;;;5067348;28;19928;-57
2022/06/03 03:37:30;;;;;;;;;;;21.90;50.40;;;;;;5089402;28;19967;-57
2022/06/03 03:40:15;;;;;;;;;;;21.80;50.50;;;;;;5120981;28;19934;-58
2022/06/03 03:43:13;;;;;;;;;;;21.90;50.50;;;;;;5122606;28;19924;-57
2022/06/03 03:45:57;;;;;;;;;;;22.00;50.30;;;;;;5066334;28;20430;-58
2022/06/03 03:48:42;;;;;;;;;;;22.00;50.00;;;;;;5128960;28;19988;-58
2022/06/03 03:51:09;;;;;;;;;;;22.00;50.00;;;;;;5123618;28;19928;-59
2022/06/03 03:53:41;;;;;;;;;;;22.20;49.70;;;;;;5105163;28;19927;-58
2022/06/03 03:56:13;;;;;;;;;;;22.20;49.60;;;;;;5128689;28;19938;-59
2022/06/03 03:58:57;;;;;;;;;;;22.10;49.70;;;;;;5101819;28;19935;-58
2022/06/03 04:01:42;;;;;;;;;;;22.10;49.80;;;;;;5104625;28;19923;-57
2022/06/03 04:04:08;;;;;;;;;;;22.10;49.70;;;;;;5128528;28;19928;-58
2022/06/03 04:06:52;;;;;;;;;;;22.10;49.80;;;;;;5123365;28;19924;-58
2022/06/03 04:09:19;;;;;;;;;;;22.10;49.90;;;;;;5123310;28;19977;-59
2022/06/03 04:11:55;;;;;;;;;;;22.10;49.80;;;;;;5106350;28;19931;-58
2022/06/03 04:14:32;;;;;;;;;;;22.20;49.80;;;;;;5123297;28;19927;-58
2022/06/03 04:17:17;;;;;;;;;;;22.20;49.70;;;;;;5120277;28;19927;-58
2022/06/03 04:20:02;;;;;;;;;;;22.20;49.60;;;;;;5127897;28;19943;-57
2022/06/03 04:22:34;;;;;;;;;;;22.20;49.70;;;;;;5122577;28;19923;-58
2022/06/03 04:25:19;;;;;;;;;;;22.10;49.70;;;;;;5104620;28;19962;-59
2022/06/03 04:28:05;;;;;;;;;;;22.10;49.70;;;;;;5128416;28;19923;-59
2022/06/03 04:30:49;;;;;;;;;;;22.20;49.70;;;;;;5127722;28;19923;-57
2022/06/03 04:33:27;;;;;;;;;;;22.10;49.70;;;;;;5104245;28;20438;-57
2022/06/03 04:36:04;;;;;;;;;;;22.10;49.90;;;;;;5102149;28;19927;-57
2022/06/03 04:38:49;;;;;;;;;;;22.20;49.70;;;;;;5108378;28;20355;-58
2022/06/03 04:41:38;;;;;;;;;;;22.20;49.70;;;;;;5122451;28;20358;-56
2022/06/03 04:44:23;;;;;;;;;;;22.30;49.30;;;;;;5100732;28;19927;-58
2022/06/03 04:46:58;;;;;;;;;;;22.20;49.40;;;;;;5128116;28;20018;-59
2022/06/03 04:49:23;;;;;;;;;;;22.30;49.50;;;;;;5087306;28;19933;-58
2022/06/03 04:51:55;;;;;;;;;;;22.30;49.40;;;;;;5103765;28;19924;-57
2022/06/03 04:54:24;;;;;;;;;;;22.40;49.00;;;;;;5125748;28;20345;-58
2022/06/03 04:57:03;;;;;;;;;;;22.00;49.50;;;;;;5121756;28;19972;-57
2022/06/03 04:59:58;;;;;;;;;;;21.30;50.30;;;;;;5102884;28;20015;-58
2022/06/03 05:02:33;;;;;;;;;;;21.30;51.20;;;;;;5105812;28;19930;-58
2022/06/03 05:05:25;;;;;;;;;;;21.50;51.50;;;;;;5122345;28;19924;-57
2022/06/03 05:08:09;;;;;;;;;;;21.60;51.20;;;;;;5064913;28;20363;-58
2022/06/03 05:10:52;;;;;;;;;;;21.60;51.00;;;;;;5123906;28;20484;-57
2022/06/03 05:13:37;;;;;;;;;;;21.60;50.90;;;;;;5107592;28;19988;-57
2022/06/03 05:16:26;;;;;;;;;;;21.70;50.70;;;;;;5102977;28;19927;-57
2022/06/03 05:18:51;;;;;;;;;;;21.70;50.50;;;;;;5108265;28;20068;-58
2022/06/03 05:21:33;;;;;;;;;;;21.80;50.40;;;;;;5127401;28;19927;-58
2022/06/03 05:23:58;;;;;;;;;;;21.70;50.50;;;;;;5122092;28;19923;-58
2022/06/03 05:26:43;;;;;;;;;;;21.80;50.60;;;;;;5121813;28;20330;-58
2022/06/03 05:29:28;;;;;;;;;;;21.80;50.40;;;;;;5126117;28;20482;-57
2022/06/03 05:31:56;;;;;;;;;;;21.70;50.50;;;;;;5120742;28;19998;-58
2022/06/03 05:34:28;;;;;;;;;;;21.80;50.30;;;;;;5121595;28;19937;-58
2022/06/03 05:36:53;;;;;;;;;;;21.80;50.20;;;;;;5108901;28;19935;-58
2022/06/03 05:39:32;;;;;;;;;;;21.80;50.00;;;;;;5122069;28;19982;-58
2022/06/03 05:42:29;;;;;;;;;;;21.80;50.10;;;;;;5102155;28;19932;-59
2022/06/03 05:45:15;;;;;;;;;;;21.80;50.00;;;;;;5127091;28;20264;-58
2022/06/03 05:47:45;;;;;;;;;;;21.80;49.90;;;;;;5120266;28;20177;-57
2022/06/03 05:50:12;;;;;;;;;;;21.80;49.80;;;;;;5120348;27;19928;-58
2022/06/03 05:52:56;;;;;;;;;;;21.90;49.90;;;;;;5108349;28;20138;-59
2022/06/03 05:55:22;;;;;;;;;;;22.00;49.60;;;;;;5121464;28;19923;-58
2022/06/03 05:58:06;;;;;;;;;;;22.00;49.60;;;;;;5121966;28;19945;-57
2022/06/03 06:00:32;;;;;;;;;;;22.00;49.60;;;;;;5127200;28;19927;-59
2022/06/03 06:03:11;;;;;;;;;;;22.00;49.90;;;;;;5121768;28;19927;-57
2022/06/03 06:05:56;;;;;;;;;;;21.90;50.30;;;;;;5120559;28;19931;-58
2022/06/03 06:08:28;;;;;;;;;;;21.80;50.70;;;;;;5125238;28;19927;-57
2022/06/03 06:11:03;;;;;;;;;;;21.90;50.40;;;;;;5121179;28;19927;-58
2022/06/03 06:13:29;;;;;;;;;;;21.90;50.40;;;;;;5102952;28;19927;-57
2022/06/03 06:16:07;;;;;;;;;;;22.00;50.00;;;;;;5126833;28;20273;-59
2022/06/03 06:18:42;;;;;;;;;;;22.00;49.90;;;;;;5121592;28;20022;-58
2022/06/03 06:21:16;;;;;;;;;;;22.00;50.00;;;;;;5102906;28;19953;-59
2022/06/03 06:24:06;;;;;;;;;;;22.00;50.40;;;;;;5125763;28;20055;-58
2022/06/03 06:26:49;;;;;;;;;;;21.90;51.00;;;;;;5072928;28;20016;-58
2022/06/03 06:29:23;;;;;;;;;;;22.00;50.70;;;;;;5121064;28;19942;-57
2022/06/03 06:32:06;;;;;;;;;;;22.00;50.60;;;;;;5107098;28;20445;-56
2022/06/03 06:34:35;;;;;;;;;;;22.10;50.40;;;;;;5106733;28;19930;-58
2022/06/03 06:37:18;;;;;;;;;;;22.10;50.10;;;;;;5121243;28;20026;-57
2022/06/03 06:39:50;;;;;;;;;;;22.00;50.50;;;;;;5103535;28;19923;-56
2022/06/03 06:42:18;;;;;;;;;;;20.30;53.60;;;;;;5125738;28;20014;-56
2022/06/03 06:45:03;;;;;;;;;;;20.30;56.50;;;;;;5101042;28;19923;-58
2022/06/03 06:47:30;;;;;;;;;;;21.00;55.00;;;;;;5120832;28;19968;-56
2022/06/03 06:50:15;;;;;;;;;;;21.50;52.90;;;;;;5126174;28;20015;-58
2022/06/03 06:52:44;;;;;;;;;;;21.70;52.50;;;;;;5121463;28;20307;-58
2022/06/03 06:55:16;;;;;;;;;;;21.80;52.00;;;;;;5122430;28;20298;-58
2022/06/03 06:57:46;;;;;;;;;;;21.40;50.90;;;;;;5126134;28;20313;-56
2022/06/03 07:00:24;;;;;;;;;;;21.30;49.90;;;;;;5120717;28;19935;-57
2022/06/03 07:02:53;;;;;;;;;;;21.20;49.50;;;;;;5107281;27;20394;-56
2022/06/03 07:05:19;;;;;;;;;;;21.50;51.00;;;;;;5130853;27;19931;-55
2022/06/03 07:07:54;;;;;;;;;;;21.70;51.70;;;;;;5127385;27;20268;-56
2022/06/03 07:10:31;;;;;;;;;;;21.70;51.90;;;;;;5132861;27;19923;-57
2022/06/03 07:13:06;;;;;;;;;;;21.80;52.00;;;;;;5110012;27;20781;-56
2022/06/03 07:15:50;;;;;;;;;;;21.80;51.90;;;;;;5127937;27;19934;-55
2022/06/03 07:21:11;;;;;;;;;;;22.00;51.60;;;;;;5115052;27;20401;-52
2022/06/03 07:23:50;;;;;;;;;;;22.00;51.60;;;;;;5109466;27;20172;-51
2022/06/03 07:26:31;;;;;;;;;;;22.00;51.80;;;;;;5128052;27;19963;-52
2022/06/03 07:29:13;;;;;;;;;;;22.00;52.00;;;;;;5132865;27;19957;-54
2022/06/03 07:31:58;;;;;;;;;;;22.10;51.70;;;;;;5128429;27;19923;-52
2022/06/03 07:34:44;;;;;;;;;;;22.20;51.60;;;;;;5127753;27;19972;-50
2022/06/03 07:37:12;;;;;;;;;;;22.10;52.30;;;;;;5079941;27;20018;-52
2022/06/03 07:39:58;;;;;;;;;;;20.60;54.80;;;;;;5106336;27;19923;-46
2022/06/03 07:42:27;;;;;;;;;;;20.00;58.20;;;;;;5110435;27;19976;-46
2022/06/03 07:44:59;;;;;;;;;;;21.00;58.10;;;;;;5114556;27;20439;-50
2022/06/03 07:47:25;;;;;;;;;;;21.60;55.60;;;;;;5128845;27;19923;-49
2022/06/03 07:49:56;;;;;;;;;;;21.90;53.90;;;;;;5128621;27;19927;-48
2022/06/03 07:52:26;;;;;;;;;;;21.90;53.60;;;;;;5114753;27;20010;-48
2022/06/03 07:54:55;;;;;;;;;;;22.00;53.20;;;;;;5124402;27;19930;-53
2022/06/03 07:57:22;;;;;;;;;;;22.00;53.30;;;;;;5126506;27;20085;-49
2022/06/03 07:59:48;;;;;;;;;;;22.10;53.10;;;;;;5131823;27;20069;-50
2022/06/03 08:02:15;;;;;;;;;;;22.10;53.00;;;;;;5128348;27;20309;-49
2022/06/03 08:04:41;;;;;;;;;;;22.20;52.70;;;;;;5113934;27;19924;-51
2022/06/03 08:13:04;;;;;;;;;;;20.10;58.00;;;;;;5093875;27;20292;-46
2022/06/03 08:15:31;;;;;;;;;;;21.20;58.40;;;;;;5108036;28;19927;-47
2022/06/03 08:17:57;;;;;;;;;;;21.70;55.90;;;;;;5103267;28;20014;-45
2022/06/03 08:20:23;;;;;;;;;;;21.90;54.50;;;;;;5123655;28;20482;-50
2022/06/03 08:22:50;;;;;;;;;;;21.90;54.30;;;;;;5128469;28;19935;-49
2022/06/03 08:25:17;;;;;;;;;;;22.10;53.80;;;;;;5123806;28;20337;-47
2022/06/03 08:27:43;;;;;;;;;;;22.10;53.40;;;;;;5110554;28;20282;-45
2022/06/03 08:30:13;;;;;;;;;;;22.20;53.10;;;;;;5123782;28;19927;-46
2022/06/03 08:32:55;;;;;;;;;;;22.20;52.80;;;;;;5104421;28;19924;-47
2022/06/03 08:35:23;;;;;;;;;;;22.20;53.00;;;;;;5108410;28;19923;-47
2022/06/03 08:37:50;;;;;;;;;;;22.30;52.70;;;;;;5122741;28;19927;-45
2022/06/03 08:40:19;;;;;;;;;;;21.80;53.30;;;;;;5104084;28;19931;-45
2022/06/03 08:42:49;;;;;;;;;;;20.40;56.80;;;;;;5128234;28;19931;-45
2022/06/03 08:45:16;;;;;;;;;;;20.20;57.20;;;;;;5105512;28;20405;-45
2022/06/03 08:47:45;;;;;;;;;;;20.70;60.20;;;;;;5106665;28;19924;-46
2022/06/03 08:50:13;;;;;;;;;;;21.30;58.90;;;;;;5128649;28;20006;-45
2022/06/03 08:52:49;;;;;;;;;;;21.80;56.70;;;;;;5104944;28;19928;-45
2022/06/03 08:55:22;;;;;;;;;;;21.90;55.50;;;;;;5106023;28;19981;-46
2022/06/03 08:57:47;;;;;;;;;;;21.90;55.10;;;;;;5110191;28;19923;-48
2022/06/03 09:00:17;;;;;;;;;;;22.00;54.50;;;;;;5124672;28;19927;-45
2022/06/03 09:02:49;;;;;;;;;;;22.00;54.00;;;;;;5110474;28;19990;-45
2022/06/03 09:05:18;;;;;;;;;;;21.80;52.30;;;;;;5105612;28;20357;-46
2022/06/03 09:07:48;;;;;;;;;;;21.70;50.80;;;;;;5105698;28;19923;-47
2022/06/03 09:10:14;;;;;;;;;;;21.80;51.20;;;;;;5108406;28;19924;-47
2022/06/03 09:12:49;;;;;;;;;;;22.00;52.80;;;;;;5123153;28;20056;-46
2022/06/03 09:15:18;;;;;;;;;;;22.10;53.70;;;;;;5124107;28;19931;-48
2022/06/03 09:17:59;;;;;;;;;;;22.20;54.10;;;;;;5109883;28;19930;-47
2022/06/03 09:20:30;;;;;;;;;;;22.30;53.70;;;;;;5123846;28;20026;-48
2022/06/03 09:23:16;;;;;;;;;;;22.30;53.90;;;;;;5122182;28;20014;-48
2022/06/03 09:25:47;;;;;;;;;;;21.00;56.00;;;;;;5127010;27;19933;-47
2022/06/03 09:28:20;;;;;;;;;;;20.10;58.30;;;;;;5120627;28;19924;-49
2022/06/03 09:30:46;;;;;;;;;;;20.40;59.60;;;;;;5102529;28;19923;-47
2022/06/03 09:33:12;;;;;;;;;;;21.30;59.50;;;;;;5127016;28;20435;-47
2022/06/03 09:35:38;;;;;;;;;;;21.70;57.30;;;;;;5103552;28;20021;-50
2022/06/03 09:38:04;;;;;;;;;;;21.90;55.80;;;;;;5122154;28;20014;-47
2022/06/03 09:40:35;;;;;;;;;;;22.10;55.20;;;;;;5127713;28;20006;-51
2022/06/03 09:43:06;;;;;;;;;;;22.20;54.80;;;;;;5122132;28;19933;-53
2022/06/03 09:45:32;;;;;;;;;;;22.30;55.00;;;;;;5103857;28;19923;-53
2022/06/03 09:47:59;;;;;;;;;;;21.10;56.50;;;;;;5106116;28;19923;-48
2022/06/03 09:50:25;;;;;;;;;;;20.10;59.30;;;;;;5101984;28;19931;-46
2022/06/03 09:52:57;;;;;;;;;;;20.60;60.80;;;;;;5108762;28;19923;-47
2022/06/03 09:55:25;;;;;;;;;;;21.30;59.80;;;;;;5121651;28;19923;-49
2022/06/03 09:57:51;;;;;;;;;;;21.80;57.80;;;;;;5103273;28;19923;-46
2022/06/03 10:00:24;;;;;;;;;;;22.10;56.10;;;;;;5127481;28;19972;-47
2022/06/03 10:02:50;;;;;;;;;;;22.10;55.50;;;;;;5105100;28;20010;-48
2022/06/03 10:05:16;;;;;;;;;;;22.20;55.20;;;;;;5120050;28;19930;-48
2022/06/03 10:07:44;;;;;;;;;;;22.30;55.60;;;;;;5125413;28;20478;-46
2022/06/03 10:12:59;;;;;;;;;;;20.30;59.90;;;;;;5121330;28;20253;-50
2022/06/03 10:15:39;;;;;;;;;;;20.50;60.90;;;;;;5109051;28;19927;-46
2022/06/03 10:18:24;;;;;;;;;;;21.30;61.40;;;;;;5104829;28;19924;-51
2022/06/03 10:20:50;;;;;;;;;;;21.80;59.30;;;;;;5120979;28;19931;-47
2022/06/03 10:23:18;;;;;;;;;;;22.10;57.20;;;;;;5124925;28;20014;-46
2022/06/03 10:25:46;;;;;;;;;;;22.20;56.20;;;;;;5119234;28;19931;-47
2022/06/03 10:28:12;;;;;;;;;;;22.20;55.70;;;;;;5120706;28;19943;-47
2022/06/03 10:30:40;;;;;;;;;;;22.30;55.40;;;;;;5126378;28;20037;-47
2022/06/03 10:33:27;;;;;;;;;;;22.30;55.00;;;;;;5116985;28;19954;-47
2022/06/03 10:35:55;;;;;;;;;;;22.30;54.80;;;;;;5117179;27;19928;-50
2022/06/03 10:38:21;;;;;;;;;;;21.80;55.50;;;;;;5107110;28;19923;-45
2022/06/03 10:40:48;;;;;;;;;;;20.50;58.70;;;;;;5120756;28;20306;-48
2022/06/03 10:43:14;;;;;;;;;;;20.20;59.70;;;;;;5103948;28;20299;-49
2022/06/03 10:45:40;;;;;;;;;;;20.40;59.60;;;;;;5100262;28;19927;-50
2022/06/03 10:48:19;;;;;;;;;;;20.60;61.10;;;;;;5120738;28;19923;-47
2022/06/03 10:50:45;;;;;;;;;;;21.30;61.90;;;;;;5126268;28;20391;-45
2022/06/03 11:01:31;;;;;;;;;;;22.20;56.30;;;;;;5122991;28;20027;-46
2022/06/03 11:03:56;;;;;;;;;;;22.30;55.60;;;;;;5119983;28;19975;-48
2022/06/03 11:06:32;;;;;;;;;;;22.30;55.20;;;;;;5107325;28;20014;-48
2022/06/03 11:09:01;;;;;;;;;;;22.30;54.40;;;;;;5120426;28;19923;-48
2022/06/03 11:11:37;;;;;;;;;;;22.10;52.60;;;;;;5120778;28;19934;-46
2022/06/03 11:14:21;;;;;;;;;;;21.90;50.90;;;;;;5125996;28;19946;-48
2022/06/03 11:16:51;;;;;;;;;;;22.00;50.80;;;;;;5121127;28;20346;-45
2022/06/03 11:19:18;;;;;;;;;;;22.20;52.60;;;;;;5100080;28;19927;-46
2022/06/03 11:21:43;;;;;;;;;;;22.30;53.60;;;;;;5124609;28;20356;-48
2022/06/03 11:24:09;;;;;;;;;;;22.50;54.00;;;;;;5120217;28;19994;-55
2022/06/03 11:26:36;;;;;;;;;;;20.80;56.70;;;;;;5101919;28;19923;-49
2022/06/03 11:29:03;;;;;;;;;;;20.20;58.70;;;;;;5125699;28;20327;-51
2022/06/03 11:31:35;;;;;;;;;;;20.00;59.40;;;;;;5102290;28;19951;-46
2022/06/03 11:34:02;;;;;;;;;;;20.60;59.30;;;;;;5120179;28;19933;-49
2022/06/03 11:36:41;;;;;;;;;;;21.30;60.20;;;;;;5105821;28;19972;-50
2022/06/03 11:39:25;;;;;;;;;;;21.80;58.70;;;;;;5099345;28;19978;-50
2022/06/03 11:42:05;;;;;;;;;;;22.00;57.10;;;;;;5119683;28;20003;-49
2022/06/03 11:44:34;;;;;;;;;;;22.20;56.20;;;;;;5125628;28;19962;-48
2022/06/03 11:47:04;;;;;;;;;;;22.30;55.30;;;;;;5101748;28;19923;-52
2022/06/03 11:49:30;;;;;;;;;;;22.40;54.80;;;;;;5123189;27;19930;-53
2022/06/03 11:51:56;;;;;;;;;;;21.40;56.60;;;;;;5110482;28;19923;-50
2022/06/03 11:54:23;;;;;;;;;;;20.30;60.20;;;;;;5122996;28;19927;-52
2022/06/03 11:56:49;;;;;;;;;;;20.20;61.20;;;;;;5126296;28;19934;-48
2022/06/03 11:59:31;;;;;;;;;;;20.00;61.10;;;;;;5102631;28;19928;-47
2022/06/03 12:01:58;;;;;;;;;;;20.70;62.30;;;;;;5104352;28;20061;-46
2022/06/03 12:04:27;;;;;;;;;;;21.40;62.60;;;;;;5128775;28;20643;-49
2022/06/03 12:07:00;;;;;;;;;;;21.70;61.60;;;;;;5123207;28;19987;-49
2022/06/03 12:09:45;;;;;;;;;;;21.90;59.90;;;;;;5123315;28;20357;-47
2022/06/03 12:15:32;;;;;;;;;;;22.10;57.70;;;;;;5122100;28;20010;-51
2022/06/03 12:18:14;;;;;;;;;;;22.20;56.50;;;;;;5122524;28;19934;-47
2022/06/03 12:20:47;;;;;;;;;;;22.30;55.90;;;;;;5104444;28;20630;-46
2022/06/03 12:23:13;;;;;;;;;;;22.30;55.50;;;;;;5128349;28;19928;-47
2022/06/03 12:25:48;;;;;;;;;;;22.30;55.00;;;;;;5123089;28;19923;-46
2022/06/03 12:28:16;;;;;;;;;;;22.40;54.90;;;;;;5123261;28;20204;-49
2022/06/03 12:30:46;;;;;;;;;;;21.80;56.50;;;;;;5128603;28;19933;-48
2022/06/03 12:33:40;;;;;;;;;;;20.50;59.80;;;;;;5101636;28;20034;-57
2022/06/03 12:36:07;;;;;;;;;;;20.30;60.70;;;;;;5118866;28;20271;-51
2022/06/03 12:38:34;;;;;;;;;;;20.00;61.50;;;;;;5109720;28;20450;-49
2022/06/03 12:41:01;;;;;;;;;;;20.80;62.90;;;;;;5122596;28;20162;-48
2022/06/03 12:43:29;;;;;;;;;;;21.30;64.30;;;;;;5126582;28;20006;-51
2022/06/03 12:46:15;;;;;;;;;;;21.60;63.00;;;;;;5125876;28;19934;-45
2022/06/03 12:48:47;;;;;;;;;;;21.80;61.30;;;;;;5104415;28;19923;-47
2022/06/03 12:51:23;;;;;;;;;;;22.00;59.70;;;;;;5123342;28;20343;-52
2022/06/03 12:53:53;;;;;;;;;;;22.10;58.50;;;;;;5108429;28;19923;-46
2022/06/03 12:56:20;;;;;;;;;;;22.20;57.30;;;;;;5086708;28;19923;-45
2022/06/03 12:58:53;;;;;;;;;;;22.30;56.70;;;;;;5127633;28;19931;-46
2022/06/03 13:01:33;;;;;;;;;;;22.30;56.20;;;;;;5122296;27;19930;-51
2022/06/03 13:04:18;;;;;;;;;;;22.30;56.30;;;;;;5104552;28;20538;-50
2022/06/03 13:07:04;;;;;;;;;;;20.70;59.80;;;;;;5125982;28;19998;-58
2022/06/03 13:09:50;;;;;;;;;;;20.10;61.20;;;;;;5108287;28;19927;-52
2022/06/03 13:12:17;;;;;;;;;;;20.10;61.70;;;;;;5120891;28;19927;-45
2022/06/03 13:14:43;;;;;;;;;;;20.80;64.40;;;;;;5121951;28;20527;-44
2022/06/03 13:17:11;;;;;;;;;;;20.90;63.60;;;;;;5127562;28;19930;-44
2022/06/03 13:19:41;;;;;;;;;;;20.70;61.30;;;;;;5103684;28;19923;-43
2022/06/03 13:22:10;;;;;;;;;;;20.80;58.30;;;;;;5127246;28;20017;-53
2022/06/03 13:24:39;;;;;;;;;;;21.50;58.10;;;;;;5105631;28;19924;-44
2022/06/03 13:27:12;;;;;;;;;;;21.80;57.90;;;;;;5120036;28;19928;-44
2022/06/03 13:29:50;;;;;;;;;;;22.00;58.60;;;;;;5107439;28;20289;-44
2022/06/03 13:32:19;;;;;;;;;;;22.10;58.50;;;;;;5121622;28;19927;-43
2022/06/03 13:34:45;;;;;;;;;;;22.20;58.00;;;;;;5121497;28;19927;-45
2022/06/03 13:37:40;;;;;;;;;;;22.30;57.70;;;;;;5127219;28;20394;-44
2022/06/03 13:40:06;;;;;;;;;;;22.30;57.60;;;;;;5103967;28;20010;-49
2022/06/03 13:42:57;;;;;;;;;;;21.70;59.50;;;;;;5123986;28;20069;-52
2022/06/03 13:45:23;;;;;;;;;;;20.70;61.70;;;;;;5125894;28;19945;-52
2022/06/03 13:47:50;;;;;;;;;;;20.30;63.10;;;;;;5124670;28;19923;-51
2022/06/03 13:50:17;;;;;;;;;;;20.20;63.20;;;;;;5104807;28;20019;-47
2022/06/03 13:52:45;;;;;;;;;;;20.80;63.60;;;;;;5126907;28;19936;-45
2022/06/03 13:55:14;;;;;;;;;;;21.20;66.90;;;;;;5121808;28;19972;-44
2022/06/03 13:57:42;;;;;;;;;;;21.70;66.90;;;;;;5121476;28;19929;-45
2022/06/03 14:00:22;;;;;;;;;;;21.90;65.70;;;;;;5126878;28;20371;-46
2022/06/03 14:02:49;;;;;;;;;;;22.20;63.90;;;;;;5120916;28;19937;-45
2022/06/03 14:05:25;;;;;;;;;;;22.30;62.30;;;;;;5118359;28;19946;-45
2022/06/03 14:07:55;;;;;;;;;;;22.40;60.80;;;;;;5126573;28;19928;-48
2022/06/03 14:10:22;;;;;;;;;;;22.50;60.70;;;;;;5123634;28;19980;-48
2022/06/03 14:13:02;;;;;;;;;;;21.00;61.90;;;;;;5105623;28;20546;-46
2022/06/03 14:15:30;;;;;;;;;;;20.40;63.20;;;;;;5109673;28;20014;-49
2022/06/03 14:17:58;;;;;;;;;;;20.20;63.70;;;;;;5123749;28;19927;-46
2022/06/03 14:20:25;;;;;;;;;;;20.30;63.20;;;;;;5103686;28;19989;-49
2022/06/03 14:23:09;;;;;;;;;;;20.40;64.00;;;;;;5124373;28;20056;-46
2022/06/03 14:25:39;;;;;;;;;;;21.30;66.90;;;;;;5120769;28;19930;-47
2022/06/03 14:28:10;;;;;;;;;;;21.80;69.90;;;;;;5105429;28;20060;-53
2022/06/03 14:30:57;;;;;;;;;;;21.60;66.40;;;;;;5107958;28;19923;-50
2022/06/03 14:33:23;;;;;;;;;;;21.30;64.90;;;;;;5104715;28;20322;-49
2022/06/03 14:35:56;;;;;;;;;;;21.30;64.10;;;;;;5123612;28;20447;-57
2022/06/03 14:38:41;;;;;;;;;;;21.30;63.40;;;;;;5108396;28;19924;-48
2022/06/03 14:41:10;;;;;;;;;;;21.30;62.80;;;;;;5119747;28;19923;-46
2022/06/03 14:43:36;;;;;;;;;;;21.30;62.40;;;;;;5102518;28;20314;-54
2022/06/03 14:46:04;;;;;;;;;;;21.30;62.00;;;;;;5126140;28;19923;-47
2022/06/03 14:48:32;;;;;;;;;;;21.30;61.90;;;;;;5120944;28;20250;-45
2022/06/03 14:51:01;;;;;;;;;;;21.30;61.70;;;;;;5126179;28;19931;-48
2022/06/03 14:53:29;;;;;;;;;;;21.30;61.30;;;;;;5103301;28;20457;-45
2022/06/03 14:55:56;;;;;;;;;;;21.30;61.60;;;;;;5085955;28;19930;-45
2022/06/03 14:58:25;;;;;;;;;;;21.20;61.80;;;;;;5125147;28;19924;-49
2022/06/03 15:00:51;;;;;;;;;;;21.30;61.30;;;;;;5119142;28;20234;-46
2022/06/03 15:03:19;;;;;;;;;;;21.30;61.30;;;;;;5120591;28;19927;-46
2022/06/03 15:05:48;;;;;;;;;;;21.30;60.60;;;;;;5125912;28;19924;-45
2022/06/03 15:08:16;;;;;;;;;;;21.20;60.60;;;;;;5102784;28;20382;-46
2022/06/03 15:10:44;;;;;;;;;;;21.30;60.40;;;;;;5103053;28;19932;-49
2022/06/03 15:13:17;;;;;;;;;;;21.30;60.20;;;;;;5108078;28;20405;-45
2022/06/03 15:15:43;;;;;;;;;;;21.10;60.00;;;;;;5103144;28;19931;-47
2022/06/03 15:18:14;;;;;;;;;;;21.20;60.10;;;;;;5103957;28;20383;-48
2022/06/03 15:20:40;;;;;;;;;;;21.10;60.30;;;;;;5120858;28;19927;-45